sensor_id;sensor_type;location;lat;lon;timestamp;P1;durP1;ratioP1;P2;durP2;ratioP2
6463;SDS011;3265;42.694;23.282;2023-03-04T00:00:22;27.73;;;16.63;;
6463;SDS011;3265;42.694;23.282;2023-03-04T00:02:49;29.20;;;17.20;;
6463;SDS011;3265;42.694;23.282;2023-03-04T00:05:17;28.83;;;17.53;;
6463;SDS011;3265;42.694;23.282;2023-03-04T00:07:44;28.83;;;18.60;;
6463;SDS011;3265;42.694;23.282;2023-03-04T00:10:11;30.53;;;18.50;;
6463;SDS011;3265;42.694;23.282;2023-03-04T00:12:37;29.13;;;17.23;;
6463;SDS011;3265;42.694;23.282;2023-03-04T00:15:04;29.70;;;17.53;;
6463;SDS011;3265;42.694;23.282;2023-03-04T00:17:32;30.53;;;18.27;;
6463;SDS011;3265;42.694;23.282;2023-03-04T00:19:59;31.00;;;17.47;;
6463;SDS011;3265;42.694;23.282;2023-03-04T00:22:27;28.97;;;16.83;;
6463;SDS011;3265;42.694;23.282;2023-03-04T00:24:53;25.43;;;16.40;;
6463;SDS011;3265;42.694;23.282;2023-03-04T00:27:20;29.17;;;16.93;;
6463;SDS011;3265;42.694;23.282;2023-03-04T00:29:47;29.53;;;17.20;;
6463;SDS011;3265;42.694;23.282;2023-03-04T00:32:14;28.90;;;16.37;;
6463;SDS011;3265;42.694;23.282;2023-03-04T00:34:42;26.73;;;16.23;;
6463;SDS011;3265;42.694;23.282;2023-03-04T00:37:09;28.37;;;16.17;;
6463;SDS011;3265;42.694;23.282;2023-03-04T00:39:37;27.93;;;16.37;;
6463;SDS011;3265;42.694;23.282;2023-03-04T00:42:04;26.43;;;16.07;;
6463;SDS011;3265;42.694;23.282;2023-03-04T00:44:31;27.37;;;15.67;;
6463;SDS011;3265;42.694;23.282;2023-03-04T00:46:58;27.80;;;15.43;;
6463;SDS011;3265;42.694;23.282;2023-03-04T00:49:24;23.87;;;13.90;;
6463;SDS011;3265;42.694;23.282;2023-03-04T00:51:51;22.43;;;14.20;;
6463;SDS011;3265;42.694;23.282;2023-03-04T00:54:18;21.80;;;13.17;;
6463;SDS011;3265;42.694;23.282;2023-03-04T00:56:47;21.53;;;13.10;;
6463;SDS011;3265;42.694;23.282;2023-03-04T00:59:13;20.13;;;12.87;;
6463;SDS011;3265;42.694;23.282;2023-03-04T01:01:40;19.17;;;12.30;;
6463;SDS011;3265;42.694;23.282;2023-03-04T01:04:07;22.23;;;13.43;;
6463;SDS011;3265;42.694;23.282;2023-03-04T01:06:34;25.27;;;14.00;;
6463;SDS011;3265;42.694;23.282;2023-03-04T01:09:00;22.53;;;12.60;;
6463;SDS011;3265;42.694;23.282;2023-03-04T01:11:27;21.83;;;13.37;;
6463;SDS011;3265;42.694;23.282;2023-03-04T01:14:04;24.23;;;13.80;;
6463;SDS011;3265;42.694;23.282;2023-03-04T01:16:31;27.57;;;15.87;;
6463;SDS011;3265;42.694;23.282;2023-03-04T01:18:58;25.40;;;15.43;;
6463;SDS011;3265;42.694;23.282;2023-03-04T01:21:28;25.00;;;15.00;;
6463;SDS011;3265;42.694;23.282;2023-03-04T01:23:58;24.30;;;14.67;;
6463;SDS011;3265;42.694;23.282;2023-03-04T01:26:27;22.00;;;13.80;;
6463;SDS011;3265;42.694;23.282;2023-03-04T01:28:55;22.57;;;13.40;;
6463;SDS011;3265;42.694;23.282;2023-03-04T01:31:22;25.83;;;13.97;;
6463;SDS011;3265;42.694;23.282;2023-03-04T01:33:49;22.17;;;13.50;;
6463;SDS011;3265;42.694;23.282;2023-03-04T01:36:16;24.37;;;14.00;;
6463;SDS011;3265;42.694;23.282;2023-03-04T01:38:43;24.67;;;12.93;;
6463;SDS011;3265;42.694;23.282;2023-03-04T01:41:10;22.33;;;13.90;;
6463;SDS011;3265;42.694;23.282;2023-03-04T01:43:38;25.53;;;14.43;;
6463;SDS011;3265;42.694;23.282;2023-03-04T01:46:08;22.63;;;13.77;;
6463;SDS011;3265;42.694;23.282;2023-03-04T01:48:39;21.30;;;13.20;;
6463;SDS011;3265;42.694;23.282;2023-03-04T01:51:10;21.67;;;13.33;;
6463;SDS011;3265;42.694;23.282;2023-03-04T01:53:39;19.87;;;12.83;;
6463;SDS011;3265;42.694;23.282;2023-03-04T01:56:11;21.87;;;13.43;;
6463;SDS011;3265;42.694;23.282;2023-03-04T01:58:40;22.47;;;13.30;;
6463;SDS011;3265;42.694;23.282;2023-03-04T02:01:09;20.90;;;12.87;;
6463;SDS011;3265;42.694;23.282;2023-03-04T02:03:36;21.43;;;12.97;;
6463;SDS011;3265;42.694;23.282;2023-03-04T02:06:03;23.60;;;13.90;;
6463;SDS011;3265;42.694;23.282;2023-03-04T02:08:31;24.57;;;14.20;;
6463;SDS011;3265;42.694;23.282;2023-03-04T02:10:57;24.83;;;14.10;;
6463;SDS011;3265;42.694;23.282;2023-03-04T02:13:24;24.40;;;15.37;;
6463;SDS011;3265;42.694;23.282;2023-03-04T02:15:51;23.53;;;14.70;;
6463;SDS011;3265;42.694;23.282;2023-03-04T02:18:21;25.10;;;14.87;;
6463;SDS011;3265;42.694;23.282;2023-03-04T02:20:52;26.00;;;15.20;;
6463;SDS011;3265;42.694;23.282;2023-03-04T02:23:27;23.77;;;14.37;;
6463;SDS011;3265;42.694;23.282;2023-03-04T02:26:13;26.37;;;15.20;;
6463;SDS011;3265;42.694;23.282;2023-03-04T02:28:41;28.23;;;15.00;;
6463;SDS011;3265;42.694;23.282;2023-03-04T02:31:11;26.53;;;14.83;;
6463;SDS011;3265;42.694;23.282;2023-03-04T02:33:47;25.43;;;16.13;;
6463;SDS011;3265;42.694;23.282;2023-03-04T02:36:15;24.60;;;15.80;;
6463;SDS011;3265;42.694;23.282;2023-03-04T02:38:42;23.83;;;14.53;;
6463;SDS011;3265;42.694;23.282;2023-03-04T02:41:10;24.77;;;15.27;;
6463;SDS011;3265;42.694;23.282;2023-03-04T02:43:41;25.37;;;15.57;;
6463;SDS011;3265;42.694;23.282;2023-03-04T02:46:16;23.77;;;14.93;;
6463;SDS011;3265;42.694;23.282;2023-03-04T02:48:42;27.80;;;17.20;;
6463;SDS011;3265;42.694;23.282;2023-03-04T02:51:10;28.00;;;16.73;;
6463;SDS011;3265;42.694;23.282;2023-03-04T02:53:37;30.97;;;17.73;;
6463;SDS011;3265;42.694;23.282;2023-03-04T02:56:04;28.13;;;16.50;;
6463;SDS011;3265;42.694;23.282;2023-03-04T02:58:31;24.73;;;15.50;;
6463;SDS011;3265;42.694;23.282;2023-03-04T03:00:59;25.17;;;15.63;;
6463;SDS011;3265;42.694;23.282;2023-03-04T03:03:26;29.63;;;16.93;;
6463;SDS011;3265;42.694;23.282;2023-03-04T03:05:53;27.67;;;16.43;;
6463;SDS011;3265;42.694;23.282;2023-03-04T03:08:20;30.07;;;18.30;;
6463;SDS011;3265;42.694;23.282;2023-03-04T03:10:46;26.83;;;17.13;;
6463;SDS011;3265;42.694;23.282;2023-03-04T03:13:13;30.03;;;17.43;;
6463;SDS011;3265;42.694;23.282;2023-03-04T03:15:40;29.23;;;17.57;;
6463;SDS011;3265;42.694;23.282;2023-03-04T03:18:08;28.03;;;16.77;;
6463;SDS011;3265;42.694;23.282;2023-03-04T03:20:35;30.60;;;17.47;;
6463;SDS011;3265;42.694;23.282;2023-03-04T03:23:02;26.27;;;16.07;;
6463;SDS011;3265;42.694;23.282;2023-03-04T03:25:29;25.80;;;16.47;;
6463;SDS011;3265;42.694;23.282;2023-03-04T03:27:56;29.87;;;17.10;;
6463;SDS011;3265;42.694;23.282;2023-03-04T03:30:23;28.20;;;16.33;;
6463;SDS011;3265;42.694;23.282;2023-03-04T03:32:50;26.87;;;16.23;;
6463;SDS011;3265;42.694;23.282;2023-03-04T03:35:18;27.70;;;16.27;;
6463;SDS011;3265;42.694;23.282;2023-03-04T03:37:45;28.63;;;15.90;;
6463;SDS011;3265;42.694;23.282;2023-03-04T03:40:13;30.23;;;16.30;;
6463;SDS011;3265;42.694;23.282;2023-03-04T03:42:40;26.63;;;15.60;;
6463;SDS011;3265;42.694;23.282;2023-03-04T03:45:07;27.60;;;16.47;;
6463;SDS011;3265;42.694;23.282;2023-03-04T03:47:34;28.53;;;16.70;;
6463;SDS011;3265;42.694;23.282;2023-03-04T03:50:02;29.53;;;15.90;;
6463;SDS011;3265;42.694;23.282;2023-03-04T03:52:31;28.03;;;15.97;;
6463;SDS011;3265;42.694;23.282;2023-03-04T03:54:57;27.90;;;16.13;;
6463;SDS011;3265;42.694;23.282;2023-03-04T03:57:26;27.63;;;16.37;;
6463;SDS011;3265;42.694;23.282;2023-03-04T03:59:52;26.37;;;16.10;;
6463;SDS011;3265;42.694;23.282;2023-03-04T04:02:19;30.23;;;16.20;;
6463;SDS011;3265;42.694;23.282;2023-03-04T04:04:47;31.50;;;17.13;;
6463;SDS011;3265;42.694;23.282;2023-03-04T04:07:14;26.73;;;16.40;;
6463;SDS011;3265;42.694;23.282;2023-03-04T04:09:42;27.23;;;16.83;;
6463;SDS011;3265;42.694;23.282;2023-03-04T04:12:10;30.43;;;16.57;;
6463;SDS011;3265;42.694;23.282;2023-03-04T04:14:38;29.73;;;16.50;;
6463;SDS011;3265;42.694;23.282;2023-03-04T04:17:05;27.63;;;16.30;;
6463;SDS011;3265;42.694;23.282;2023-03-04T04:19:32;26.97;;;16.10;;
6463;SDS011;3265;42.694;23.282;2023-03-04T04:21:59;30.87;;;18.17;;
6463;SDS011;3265;42.694;23.282;2023-03-04T04:24:26;29.77;;;17.30;;
6463;SDS011;3265;42.694;23.282;2023-03-04T04:26:54;29.17;;;17.83;;
6463;SDS011;3265;42.694;23.282;2023-03-04T04:29:21;31.77;;;19.43;;
6463;SDS011;3265;42.694;23.282;2023-03-04T04:31:48;36.20;;;20.60;;
6463;SDS011;3265;42.694;23.282;2023-03-04T04:34:15;37.27;;;20.90;;
6463;SDS011;3265;42.694;23.282;2023-03-04T04:36:42;32.13;;;19.10;;
6463;SDS011;3265;42.694;23.282;2023-03-04T04:39:09;31.17;;;19.93;;
6463;SDS011;3265;42.694;23.282;2023-03-04T04:41:36;31.87;;;19.73;;
6463;SDS011;3265;42.694;23.282;2023-03-04T04:44:06;33.57;;;20.90;;
6463;SDS011;3265;42.694;23.282;2023-03-04T04:46:34;36.03;;;21.87;;
6463;SDS011;3265;42.694;23.282;2023-03-04T04:49:02;33.27;;;21.33;;
6463;SDS011;3265;42.694;23.282;2023-03-04T04:51:29;39.93;;;22.20;;
6463;SDS011;3265;42.694;23.282;2023-03-04T04:53:57;37.70;;;21.37;;
6463;SDS011;3265;42.694;23.282;2023-03-04T04:56:24;39.43;;;22.47;;
6463;SDS011;3265;42.694;23.282;2023-03-04T04:58:52;36.43;;;22.93;;
6463;SDS011;3265;42.694;23.282;2023-03-04T05:01:20;39.03;;;22.73;;
6463;SDS011;3265;42.694;23.282;2023-03-04T05:03:47;35.67;;;21.53;;
6463;SDS011;3265;42.694;23.282;2023-03-04T05:06:17;45.73;;;22.30;;
6463;SDS011;3265;42.694;23.282;2023-03-04T05:08:45;34.47;;;20.30;;
6463;SDS011;3265;42.694;23.282;2023-03-04T05:11:12;34.97;;;19.43;;
6463;SDS011;3265;42.694;23.282;2023-03-04T05:13:39;38.73;;;21.20;;
6463;SDS011;3265;42.694;23.282;2023-03-04T05:16:06;38.03;;;21.43;;
6463;SDS011;3265;42.694;23.282;2023-03-04T05:18:34;37.67;;;22.30;;
6463;SDS011;3265;42.694;23.282;2023-03-04T05:21:02;36.43;;;21.80;;
6463;SDS011;3265;42.694;23.282;2023-03-04T05:23:30;40.53;;;21.47;;
6463;SDS011;3265;42.694;23.282;2023-03-04T05:25:58;40.77;;;21.93;;
6463;SDS011;3265;42.694;23.282;2023-03-04T05:28:25;35.93;;;20.97;;
6463;SDS011;3265;42.694;23.282;2023-03-04T05:30:52;33.47;;;20.03;;
6463;SDS011;3265;42.694;23.282;2023-03-04T05:33:19;45.77;;;22.37;;
6463;SDS011;3265;42.694;23.282;2023-03-04T05:35:48;40.23;;;21.83;;
6463;SDS011;3265;42.694;23.282;2023-03-04T05:38:16;36.07;;;21.50;;
6463;SDS011;3265;42.694;23.282;2023-03-04T05:40:44;40.67;;;21.90;;
6463;SDS011;3265;42.694;23.282;2023-03-04T05:43:11;35.27;;;20.63;;
6463;SDS011;3265;42.694;23.282;2023-03-04T05:45:38;35.67;;;21.20;;
6463;SDS011;3265;42.694;23.282;2023-03-04T05:48:06;36.80;;;21.20;;
6463;SDS011;3265;42.694;23.282;2023-03-04T05:50:33;36.27;;;19.23;;
6463;SDS011;3265;42.694;23.282;2023-03-04T05:53:02;39.37;;;20.37;;
6463;SDS011;3265;42.694;23.282;2023-03-04T05:55:29;30.40;;;18.20;;
6463;SDS011;3265;42.694;23.282;2023-03-04T05:57:56;28.27;;;17.60;;
6463;SDS011;3265;42.694;23.282;2023-03-04T06:00:23;24.07;;;16.00;;
6463;SDS011;3265;42.694;23.282;2023-03-04T06:02:51;28.40;;;16.73;;
6463;SDS011;3265;42.694;23.282;2023-03-04T06:05:18;30.03;;;17.27;;
6463;SDS011;3265;42.694;23.282;2023-03-04T06:07:45;26.40;;;15.53;;
6463;SDS011;3265;42.694;23.282;2023-03-04T06:10:14;28.47;;;16.00;;
6463;SDS011;3265;42.694;23.282;2023-03-04T06:12:42;26.50;;;16.37;;
6463;SDS011;3265;42.694;23.282;2023-03-04T06:15:09;28.10;;;16.73;;
6463;SDS011;3265;42.694;23.282;2023-03-04T06:17:37;30.93;;;19.17;;
6463;SDS011;3265;42.694;23.282;2023-03-04T06:20:05;33.80;;;20.00;;
6463;SDS011;3265;42.694;23.282;2023-03-04T06:22:33;42.33;;;20.67;;
6463;SDS011;3265;42.694;23.282;2023-03-04T06:25:00;34.63;;;20.27;;
6463;SDS011;3265;42.694;23.282;2023-03-04T06:27:28;35.30;;;19.50;;
6463;SDS011;3265;42.694;23.282;2023-03-04T06:29:55;36.50;;;19.23;;
6463;SDS011;3265;42.694;23.282;2023-03-04T06:32:22;31.27;;;18.50;;
6463;SDS011;3265;42.694;23.282;2023-03-04T06:34:49;33.83;;;18.93;;
6463;SDS011;3265;42.694;23.282;2023-03-04T06:37:15;35.97;;;21.97;;
6463;SDS011;3265;42.694;23.282;2023-03-04T06:39:43;43.23;;;27.53;;
6463;SDS011;3265;42.694;23.282;2023-03-04T06:42:10;47.33;;;25.90;;
6463;SDS011;3265;42.694;23.282;2023-03-04T06:44:38;34.77;;;22.80;;
6463;SDS011;3265;42.694;23.282;2023-03-04T06:47:05;37.20;;;22.63;;
6463;SDS011;3265;42.694;23.282;2023-03-04T06:49:32;40.27;;;24.10;;
6463;SDS011;3265;42.694;23.282;2023-03-04T06:51:59;37.70;;;22.23;;
6463;SDS011;3265;42.694;23.282;2023-03-04T06:54:26;33.93;;;20.60;;
6463;SDS011;3265;42.694;23.282;2023-03-04T06:56:53;36.47;;;20.50;;
6463;SDS011;3265;42.694;23.282;2023-03-04T06:59:19;35.60;;;20.33;;
6463;SDS011;3265;42.694;23.282;2023-03-04T07:01:48;33.43;;;18.63;;
6463;SDS011;3265;42.694;23.282;2023-03-04T07:04:15;26.67;;;14.67;;
6463;SDS011;3265;42.694;23.282;2023-03-04T07:06:41;21.57;;;13.10;;
6463;SDS011;3265;42.694;23.282;2023-03-04T07:09:08;23.07;;;12.93;;
6463;SDS011;3265;42.694;23.282;2023-03-04T07:11:35;23.43;;;11.20;;
6463;SDS011;3265;42.694;23.282;2023-03-04T07:14:02;18.23;;;11.03;;
6463;SDS011;3265;42.694;23.282;2023-03-04T07:16:29;19.43;;;12.10;;
6463;SDS011;3265;42.694;23.282;2023-03-04T07:18:57;19.93;;;11.77;;
6463;SDS011;3265;42.694;23.282;2023-03-04T07:21:24;24.80;;;13.80;;
6463;SDS011;3265;42.694;23.282;2023-03-04T07:23:51;25.80;;;13.93;;
6463;SDS011;3265;42.694;23.282;2023-03-04T07:26:18;24.20;;;12.70;;
6463;SDS011;3265;42.694;23.282;2023-03-04T07:28:45;21.17;;;12.53;;
6463;SDS011;3265;42.694;23.282;2023-03-04T07:31:15;25.87;;;12.93;;
6463;SDS011;3265;42.694;23.282;2023-03-04T07:33:46;22.90;;;12.93;;
6463;SDS011;3265;42.694;23.282;2023-03-04T07:36:14;23.70;;;13.77;;
6463;SDS011;3265;42.694;23.282;2023-03-04T07:38:44;21.90;;;13.17;;
6463;SDS011;3265;42.694;23.282;2023-03-04T07:41:11;22.93;;;13.47;;
6463;SDS011;3265;42.694;23.282;2023-03-04T07:43:39;23.57;;;12.23;;
6463;SDS011;3265;42.694;23.282;2023-03-04T07:46:06;27.73;;;11.57;;
6463;SDS011;3265;42.694;23.282;2023-03-04T07:48:33;20.37;;;11.17;;
6463;SDS011;3265;42.694;23.282;2023-03-04T07:51:02;20.57;;;11.40;;
6463;SDS011;3265;42.694;23.282;2023-03-04T07:53:32;23.53;;;11.97;;
6463;SDS011;3265;42.694;23.282;2023-03-04T07:55:59;18.30;;;11.73;;
6463;SDS011;3265;42.694;23.282;2023-03-04T07:58:29;21.97;;;12.17;;
6463;SDS011;3265;42.694;23.282;2023-03-04T08:00:56;25.60;;;13.20;;
6463;SDS011;3265;42.694;23.282;2023-03-04T08:03:24;25.13;;;12.17;;
6463;SDS011;3265;42.694;23.282;2023-03-04T08:05:51;20.20;;;11.83;;
6463;SDS011;3265;42.694;23.282;2023-03-04T08:08:17;21.50;;;12.27;;
6463;SDS011;3265;42.694;23.282;2023-03-04T08:10:46;22.70;;;11.57;;
6463;SDS011;3265;42.694;23.282;2023-03-04T08:13:12;19.03;;;11.50;;
6463;SDS011;3265;42.694;23.282;2023-03-04T08:15:40;19.17;;;10.97;;
6463;SDS011;3265;42.694;23.282;2023-03-04T08:18:07;21.77;;;12.40;;
6463;SDS011;3265;42.694;23.282;2023-03-04T08:20:34;24.03;;;13.13;;
6463;SDS011;3265;42.694;23.282;2023-03-04T08:23:01;31.83;;;18.90;;
6463;SDS011;3265;42.694;23.282;2023-03-04T08:25:28;29.30;;;18.27;;
6463;SDS011;3265;42.694;23.282;2023-03-04T08:27:56;43.40;;;24.17;;
6463;SDS011;3265;42.694;23.282;2023-03-04T08:30:24;40.10;;;23.87;;
6463;SDS011;3265;42.694;23.282;2023-03-04T08:32:51;31.90;;;20.00;;
6463;SDS011;3265;42.694;23.282;2023-03-04T08:35:18;28.47;;;14.30;;
6463;SDS011;3265;42.694;23.282;2023-03-04T08:37:44;26.17;;;14.30;;
6463;SDS011;3265;42.694;23.282;2023-03-04T08:40:12;20.40;;;11.30;;
6463;SDS011;3265;42.694;23.282;2023-03-04T08:42:39;21.47;;;11.57;;
6463;SDS011;3265;42.694;23.282;2023-03-04T08:45:08;24.03;;;12.77;;
6463;SDS011;3265;42.694;23.282;2023-03-04T08:47:36;23.30;;;11.70;;
6463;SDS011;3265;42.694;23.282;2023-03-04T08:50:05;20.63;;;11.13;;
6463;SDS011;3265;42.694;23.282;2023-03-04T08:52:33;20.10;;;10.43;;
6463;SDS011;3265;42.694;23.282;2023-03-04T08:54:59;22.53;;;12.47;;
6463;SDS011;3265;42.694;23.282;2023-03-04T08:57:26;26.90;;;13.10;;
6463;SDS011;3265;42.694;23.282;2023-03-04T08:59:53;22.40;;;10.83;;
6463;SDS011;3265;42.694;23.282;2023-03-04T09:02:22;21.67;;;10.53;;
6463;SDS011;3265;42.694;23.282;2023-03-04T09:04:48;19.60;;;10.73;;
6463;SDS011;3265;42.694;23.282;2023-03-04T09:07:15;27.53;;;12.07;;
6463;SDS011;3265;42.694;23.282;2023-03-04T09:09:42;24.90;;;11.97;;
6463;SDS011;3265;42.694;23.282;2023-03-04T09:12:09;24.57;;;11.83;;
6463;SDS011;3265;42.694;23.282;2023-03-04T09:14:36;19.63;;;11.03;;
6463;SDS011;3265;42.694;23.282;2023-03-04T09:17:03;18.37;;;10.63;;
6463;SDS011;3265;42.694;23.282;2023-03-04T09:19:34;21.77;;;10.07;;
6463;SDS011;3265;42.694;23.282;2023-03-04T09:22:02;19.60;;;10.30;;
6463;SDS011;3265;42.694;23.282;2023-03-04T09:24:29;19.13;;;11.10;;
6463;SDS011;3265;42.694;23.282;2023-03-04T09:26:56;24.27;;;13.17;;
6463;SDS011;3265;42.694;23.282;2023-03-04T09:29:23;23.17;;;13.20;;
6463;SDS011;3265;42.694;23.282;2023-03-04T09:31:49;24.83;;;13.17;;
6463;SDS011;3265;42.694;23.282;2023-03-04T09:34:16;19.50;;;12.63;;
6463;SDS011;3265;42.694;23.282;2023-03-04T09:36:44;26.40;;;13.47;;
6463;SDS011;3265;42.694;23.282;2023-03-04T09:39:11;24.50;;;12.87;;
6463;SDS011;3265;42.694;23.282;2023-03-04T09:41:39;19.93;;;12.17;;
6463;SDS011;3265;42.694;23.282;2023-03-04T09:44:12;24.10;;;12.53;;
6463;SDS011;3265;42.694;23.282;2023-03-04T09:46:46;21.60;;;12.17;;
6463;SDS011;3265;42.694;23.282;2023-03-04T09:49:15;25.40;;;12.53;;
6463;SDS011;3265;42.694;23.282;2023-03-04T09:51:46;23.97;;;13.83;;
6463;SDS011;3265;42.694;23.282;2023-03-04T09:54:24;29.47;;;13.83;;
6463;SDS011;3265;42.694;23.282;2023-03-04T09:56:59;21.60;;;13.10;;
6463;SDS011;3265;42.694;23.282;2023-03-04T09:59:46;25.67;;;13.30;;
6463;SDS011;3265;42.694;23.282;2023-03-04T10:02:19;25.93;;;13.60;;
6463;SDS011;3265;42.694;23.282;2023-03-04T10:04:55;21.50;;;13.37;;
6463;SDS011;3265;42.694;23.282;2023-03-04T10:07:30;25.33;;;14.20;;
6463;SDS011;3265;42.694;23.282;2023-03-04T10:10:02;25.63;;;14.40;;
6463;SDS011;3265;42.694;23.282;2023-03-04T10:12:37;26.70;;;13.20;;
6463;SDS011;3265;42.694;23.282;2023-03-04T10:15:16;27.83;;;13.20;;
6463;SDS011;3265;42.694;23.282;2023-03-04T10:17:48;24.80;;;12.73;;
6463;SDS011;3265;42.694;23.282;2023-03-04T10:20:22;23.53;;;12.40;;
6463;SDS011;3265;42.694;23.282;2023-03-04T10:22:57;25.77;;;12.70;;
6463;SDS011;3265;42.694;23.282;2023-03-04T10:25:33;22.30;;;12.17;;
6463;SDS011;3265;42.694;23.282;2023-03-04T10:28:05;21.53;;;12.13;;
6463;SDS011;3265;42.694;23.282;2023-03-04T10:30:43;20.73;;;11.47;;
6463;SDS011;3265;42.694;23.282;2023-03-04T10:33:16;23.17;;;12.63;;
6463;SDS011;3265;42.694;23.282;2023-03-04T10:35:45;22.00;;;12.00;;
6463;SDS011;3265;42.694;23.282;2023-03-04T10:38:17;20.17;;;12.00;;
6463;SDS011;3265;42.694;23.282;2023-03-04T10:40:45;21.23;;;11.30;;
6463;SDS011;3265;42.694;23.282;2023-03-04T10:43:16;23.33;;;12.43;;
6463;SDS011;3265;42.694;23.282;2023-03-04T10:45:44;19.73;;;12.60;;
6463;SDS011;3265;42.694;23.282;2023-03-04T10:48:20;25.00;;;12.73;;
6463;SDS011;3265;42.694;23.282;2023-03-04T10:50:48;29.00;;;13.23;;
6463;SDS011;3265;42.694;23.282;2023-03-04T10:53:29;24.17;;;14.63;;
6463;SDS011;3265;42.694;23.282;2023-03-04T10:56:01;25.73;;;13.53;;
6463;SDS011;3265;42.694;23.282;2023-03-04T10:58:33;25.13;;;13.20;;
6463;SDS011;3265;42.694;23.282;2023-03-04T11:01:04;24.17;;;13.47;;
6463;SDS011;3265;42.694;23.282;2023-03-04T11:03:32;25.77;;;14.30;;
6463;SDS011;3265;42.694;23.282;2023-03-04T11:06:10;27.93;;;13.90;;
6463;SDS011;3265;42.694;23.282;2023-03-04T11:08:44;24.03;;;13.37;;
6463;SDS011;3265;42.694;23.282;2023-03-04T11:11:22;20.83;;;12.50;;
6463;SDS011;3265;42.694;23.282;2023-03-04T11:13:52;25.77;;;13.57;;
6463;SDS011;3265;42.694;23.282;2023-03-04T11:16:24;27.57;;;13.20;;
6463;SDS011;3265;42.694;23.282;2023-03-04T11:18:53;25.17;;;13.10;;
6463;SDS011;3265;42.694;23.282;2023-03-04T11:21:23;26.03;;;13.40;;
6463;SDS011;3265;42.694;23.282;2023-03-04T11:23:56;20.93;;;13.00;;
6463;SDS011;3265;42.694;23.282;2023-03-04T11:26:27;24.57;;;13.47;;
6463;SDS011;3265;42.694;23.282;2023-03-04T11:28:59;22.87;;;12.97;;
6463;SDS011;3265;42.694;23.282;2023-03-04T11:31:33;21.83;;;13.63;;
6463;SDS011;3265;42.694;23.282;2023-03-04T11:34:06;24.07;;;13.90;;
6463;SDS011;3265;42.694;23.282;2023-03-04T11:36:42;26.17;;;13.90;;
6463;SDS011;3265;42.694;23.282;2023-03-04T11:39:22;30.77;;;13.33;;
6463;SDS011;3265;42.694;23.282;2023-03-04T11:41:56;28.73;;;13.97;;
6463;SDS011;3265;42.694;23.282;2023-03-04T11:44:28;24.23;;;14.80;;
6463;SDS011;3265;42.694;23.282;2023-03-04T11:47:04;26.83;;;14.53;;
6463;SDS011;3265;42.694;23.282;2023-03-04T11:49:57;22.63;;;14.63;;
6463;SDS011;3265;42.694;23.282;2023-03-04T11:52:47;29.97;;;14.60;;
6463;SDS011;3265;42.694;23.282;2023-03-04T11:55:42;27.83;;;15.67;;
6463;SDS011;3265;42.694;23.282;2023-03-04T12:01:17;28.13;;;14.77;;
6463;SDS011;3265;42.694;23.282;2023-03-04T12:07:08;31.47;;;15.33;;
6463;SDS011;3265;42.694;23.282;2023-03-04T12:09:56;28.23;;;14.93;;
6463;SDS011;3265;42.694;23.282;2023-03-04T12:12:42;29.23;;;15.60;;
6463;SDS011;3265;42.694;23.282;2023-03-04T12:15:24;26.57;;;15.53;;
6463;SDS011;3265;42.694;23.282;2023-03-04T12:18:04;26.40;;;15.53;;
6463;SDS011;3265;42.694;23.282;2023-03-04T12:20:50;27.47;;;15.47;;
6463;SDS011;3265;42.694;23.282;2023-03-04T12:23:28;29.27;;;16.47;;
6463;SDS011;3265;42.694;23.282;2023-03-04T12:29:33;28.90;;;15.50;;
6463;SDS011;3265;42.694;23.282;2023-03-04T12:32:16;35.53;;;15.63;;
6463;SDS011;3265;42.694;23.282;2023-03-04T12:44:59;31.07;;;15.90;;
6463;SDS011;3265;42.694;23.282;2023-03-04T12:51:26;26.77;;;15.80;;
6463;SDS011;3265;42.694;23.282;2023-03-04T12:54:04;27.13;;;15.60;;
6463;SDS011;3265;42.694;23.282;2023-03-04T13:05:27;28.90;;;16.20;;
6463;SDS011;3265;42.694;23.282;2023-03-04T13:08:02;28.77;;;17.20;;
6463;SDS011;3265;42.694;23.282;2023-03-04T13:10:38;28.97;;;16.63;;
6463;SDS011;3265;42.694;23.282;2023-03-04T13:13:05;29.37;;;16.70;;
6463;SDS011;3265;42.694;23.282;2023-03-04T13:16:01;30.50;;;16.10;;
6463;SDS011;3265;42.694;23.282;2023-03-04T13:18:30;30.83;;;16.77;;
6463;SDS011;3265;42.694;23.282;2023-03-04T13:23:48;29.97;;;16.70;;
6463;SDS011;3265;42.694;23.282;2023-03-04T13:26:17;27.93;;;16.00;;
6463;SDS011;3265;42.694;23.282;2023-03-04T13:29:08;31.03;;;17.23;;
6463;SDS011;3265;42.694;23.282;2023-03-04T13:34:41;30.13;;;16.87;;
6463;SDS011;3265;42.694;23.282;2023-03-04T13:37:25;29.83;;;16.37;;
6463;SDS011;3265;42.694;23.282;2023-03-04T13:45:56;29.67;;;16.50;;
6463;SDS011;3265;42.694;23.282;2023-03-04T13:48:29;27.83;;;16.77;;
6463;SDS011;3265;42.694;23.282;2023-03-04T13:51:00;33.63;;;17.20;;
6463;SDS011;3265;42.694;23.282;2023-03-04T13:53:43;26.60;;;15.93;;
6463;SDS011;3265;42.694;23.282;2023-03-04T13:56:20;29.90;;;16.73;;
6463;SDS011;3265;42.694;23.282;2023-03-04T13:59:01;29.57;;;16.77;;
6463;SDS011;3265;42.694;23.282;2023-03-04T14:04:38;27.53;;;17.07;;
6463;SDS011;3265;42.694;23.282;2023-03-04T14:07:17;29.17;;;17.13;;
6463;SDS011;3265;42.694;23.282;2023-03-04T14:09:53;33.80;;;18.40;;
6463;SDS011;3265;42.694;23.282;2023-03-04T14:12:22;26.83;;;15.87;;
6463;SDS011;3265;42.694;23.282;2023-03-04T14:14:51;29.23;;;16.80;;
6463;SDS011;3265;42.694;23.282;2023-03-04T14:17:19;29.43;;;17.63;;
6463;SDS011;3265;42.694;23.282;2023-03-04T14:19:50;29.67;;;17.33;;
6463;SDS011;3265;42.694;23.282;2023-03-04T14:22:18;32.43;;;17.50;;
6463;SDS011;3265;42.694;23.282;2023-03-04T14:27:46;36.07;;;18.03;;
6463;SDS011;3265;42.694;23.282;2023-03-04T14:30:18;32.27;;;17.07;;
6463;SDS011;3265;42.694;23.282;2023-03-04T14:32:47;31.37;;;18.10;;
6463;SDS011;3265;42.694;23.282;2023-03-04T14:35:19;34.80;;;17.80;;
6463;SDS011;3265;42.694;23.282;2023-03-04T14:37:48;33.03;;;17.20;;
6463;SDS011;3265;42.694;23.282;2023-03-04T14:40:22;29.93;;;17.30;;
6463;SDS011;3265;42.694;23.282;2023-03-04T14:42:54;31.07;;;17.60;;
6463;SDS011;3265;42.694;23.282;2023-03-04T14:45:22;32.57;;;17.23;;
6463;SDS011;3265;42.694;23.282;2023-03-04T14:47:51;31.23;;;17.07;;
6463;SDS011;3265;42.694;23.282;2023-03-04T14:50:24;27.20;;;15.83;;
6463;SDS011;3265;42.694;23.282;2023-03-04T14:53:02;29.10;;;17.43;;
6463;SDS011;3265;42.694;23.282;2023-03-04T14:55:38;28.83;;;16.47;;
6463;SDS011;3265;42.694;23.282;2023-03-04T14:58:05;27.17;;;15.70;;
6463;SDS011;3265;42.694;23.282;2023-03-04T15:00:35;27.37;;;16.23;;
6463;SDS011;3265;42.694;23.282;2023-03-04T15:03:04;29.90;;;16.63;;
6463;SDS011;3265;42.694;23.282;2023-03-04T15:05:46;33.30;;;16.97;;
6463;SDS011;3265;42.694;23.282;2023-03-04T15:08:17;29.60;;;17.53;;
6463;SDS011;3265;42.694;23.282;2023-03-04T15:10:52;27.80;;;15.47;;
6463;SDS011;3265;42.694;23.282;2023-03-04T15:13:35;33.37;;;17.40;;
6463;SDS011;3265;42.694;23.282;2023-03-04T15:16:04;28.43;;;16.40;;
6463;SDS011;3265;42.694;23.282;2023-03-04T15:18:35;30.77;;;16.40;;
6463;SDS011;3265;42.694;23.282;2023-03-04T15:21:04;30.57;;;18.87;;
6463;SDS011;3265;42.694;23.282;2023-03-04T15:23:32;30.80;;;15.93;;
6463;SDS011;3265;42.694;23.282;2023-03-04T15:25:59;26.57;;;15.60;;
6463;SDS011;3265;42.694;23.282;2023-03-04T15:28:29;27.93;;;13.97;;
6463;SDS011;3265;42.694;23.282;2023-03-04T15:30:59;22.07;;;13.63;;
6463;SDS011;3265;42.694;23.282;2023-03-04T15:33:26;26.60;;;14.90;;
6463;SDS011;3265;42.694;23.282;2023-03-04T15:35:53;27.57;;;16.23;;
6463;SDS011;3265;42.694;23.282;2023-03-04T15:38:23;27.63;;;16.17;;